createdAt,value
2023-01-09T00:01:23.322Z,4.90
2023-01-09T00:03:49.843Z,5.07
2023-01-09T00:06:16.271Z,5.10
2023-01-09T00:08:42.637Z,5.19
2023-01-09T00:11:09.034Z,5.18
2023-01-09T00:13:35.654Z,5.25
2023-01-09T00:16:02.017Z,5.22
2023-01-09T00:18:28.589Z,5.24
2023-01-09T00:20:55.013Z,5.30
2023-01-09T00:23:21.603Z,5.36
2023-01-09T00:25:47.956Z,5.35
2023-01-09T00:28:14.558Z,5.27
2023-01-09T00:30:40.931Z,5.23
2023-01-09T00:33:07.358Z,5.20
2023-01-09T00:35:33.813Z,5.16
2023-01-09T00:38:00.413Z,5.05
2023-01-09T00:40:26.801Z,5.05
2023-01-09T00:42:55.213Z,5.14
2023-01-09T00:45:28.595Z,5.24
2023-01-09T00:47:57.039Z,5.43
2023-01-09T00:50:24.731Z,5.54
2023-01-09T00:52:51.483Z,5.68
2023-01-09T00:55:17.900Z,5.77
2023-01-09T00:57:44.317Z,5.91
2023-01-09T01:00:11.305Z,5.95
2023-01-09T01:02:37.885Z,5.98
2023-01-09T01:05:23.331Z,6.02
2023-01-09T01:07:49.797Z,6.07
2023-01-09T01:10:20.330Z,6.08
2023-01-09T01:12:47.360Z,6.12
2023-01-09T01:15:14.023Z,6.16
2023-01-09T01:17:40.934Z,6.22
2023-01-09T01:20:09.977Z,6.28
2023-01-09T01:22:36.529Z,6.32
2023-01-09T01:25:04.254Z,6.35
2023-01-09T01:27:30.925Z,6.39
2023-01-09T01:29:57.260Z,6.41
2023-01-09T01:32:24.027Z,6.46
2023-01-09T01:34:50.371Z,6.48
2023-01-09T01:37:16.962Z,6.51
2023-01-09T01:39:43.330Z,6.53
2023-01-09T01:42:12.936Z,6.57
2023-01-09T01:44:58.343Z,6.61
2023-01-09T01:47:45.009Z,6.60
2023-01-09T01:50:25.891Z,6.61
2023-01-09T01:53:14.219Z,6.63
2023-01-09T01:55:45.705Z,6.66
2023-01-09T01:58:14.079Z,6.65
2023-01-09T02:00:42.932Z,6.67
2023-01-09T02:03:09.516Z,6.68
2023-01-09T02:05:36.775Z,6.69
2023-01-09T02:08:03.626Z,6.69
2023-01-09T02:10:30.435Z,6.73
2023-01-09T02:12:56.798Z,6.72
2023-01-09T02:15:23.223Z,6.73
2023-01-09T02:18:08.493Z,6.71
2023-01-09T02:20:43.847Z,6.69
2023-01-09T02:23:44.138Z,6.68
2023-01-09T02:26:34.885Z,6.68
2023-01-09T02:29:30.789Z,6.70
2023-01-09T02:32:02.924Z,6.72
2023-01-09T02:34:36.037Z,6.69
2023-01-09T02:37:02.439Z,6.69
2023-01-09T02:39:52.262Z,6.70
2023-01-09T02:42:23.233Z,6.70
2023-01-09T02:44:50.007Z,6.72
2023-01-09T02:47:16.367Z,6.70
2023-01-09T02:49:52.360Z,6.71
2023-01-09T02:52:21.684Z,6.70
2023-01-09T02:54:51.123Z,6.70
2023-01-09T02:57:24.810Z,6.71
2023-01-09T03:00:07.028Z,6.69
2023-01-09T03:02:53.538Z,6.71
2023-01-09T03:05:30.472Z,6.71
2023-01-09T03:08:01.349Z,6.70
2023-01-09T03:10:27.693Z,6.70
2023-01-09T03:12:54.555Z,6.68
2023-01-09T03:15:22.504Z,6.67
2023-01-09T03:17:48.873Z,6.67
2023-01-09T03:20:17.980Z,6.64
2023-01-09T03:22:58.002Z,6.65
2023-01-09T03:25:24.675Z,6.67
2023-01-09T03:27:54.339Z,6.65
2023-01-09T03:30:20.699Z,6.63
2023-01-09T03:32:47.070Z,6.65
2023-01-09T03:35:13.857Z,6.67
2023-01-09T03:37:40.217Z,6.66
2023-01-09T03:40:07.466Z,6.65
2023-01-09T03:42:33.834Z,6.67
2023-01-09T03:45:00.207Z,6.69
2023-01-09T03:47:26.838Z,6.71
2023-01-09T03:49:53.206Z,6.70
2023-01-09T03:52:19.549Z,6.72
2023-01-09T03:54:45.905Z,6.71
2023-01-09T03:57:12.255Z,6.73
2023-01-09T03:59:39.259Z,6.74
2023-01-09T04:02:05.926Z,6.73
2023-01-09T04:04:32.619Z,6.76
2023-01-09T04:06:58.962Z,6.75
2023-01-09T04:09:25.499Z,6.77
2023-01-09T04:11:51.888Z,6.77
2023-01-09T04:14:18.317Z,6.77
2023-01-09T04:16:44.694Z,6.74
2023-01-09T04:19:11.065Z,6.73
2023-01-09T04:21:37.429Z,6.71
2023-01-09T04:24:04.109Z,6.71
2023-01-09T04:26:30.708Z,6.69
2023-01-09T04:28:57.260Z,6.70
2023-01-09T04:31:23.693Z,6.70
2023-01-09T04:33:50.305Z,6.69
2023-01-09T04:36:16.659Z,6.69
2023-01-09T04:38:43.251Z,6.73
2023-01-09T04:41:09.627Z,6.72
2023-01-09T04:43:36.017Z,6.73
2023-01-09T04:46:02.678Z,6.73
2023-01-09T04:48:29.076Z,6.72
2023-01-09T04:50:55.414Z,6.73
2023-01-09T04:53:21.858Z,6.71
2023-01-09T04:55:48.204Z,6.75
2023-01-09T04:58:14.565Z,6.78
2023-01-09T05:00:40.958Z,6.75
2023-01-09T05:03:07.367Z,6.75
2023-01-09T05:05:33.721Z,6.74
2023-01-09T05:08:02.998Z,6.75
2023-01-09T05:10:29.352Z,6.79
2023-01-09T05:12:55.731Z,6.77
2023-01-09T05:15:22.102Z,6.76
2023-01-09T05:17:48.523Z,6.75
2023-01-09T05:20:15.101Z,6.77
2023-01-09T05:22:41.450Z,6.80
2023-01-09T05:25:08.222Z,6.78
2023-01-09T05:27:34.581Z,6.79
2023-01-09T05:30:01.004Z,6.83
2023-01-09T05:32:27.401Z,6.80
2023-01-09T05:34:53.817Z,6.79
2023-01-09T05:37:20.246Z,6.81
2023-01-09T05:39:46.596Z,6.79
2023-01-09T05:42:12.931Z,6.81
2023-01-09T05:44:39.540Z,6.84
2023-01-09T05:47:05.899Z,6.80
2023-01-09T05:49:32.373Z,6.82
2023-01-09T05:51:58.747Z,6.80
2023-01-09T05:54:25.236Z,6.83
2023-01-09T05:56:51.649Z,6.84
2023-01-09T05:59:18.200Z,6.82
2023-01-09T06:01:44.637Z,6.85
2023-01-09T06:04:11.062Z,6.86
2023-01-09T06:06:37.492Z,6.88
2023-01-09T06:09:03.904Z,6.91
2023-01-09T06:11:30.316Z,6.90
2023-01-09T06:13:56.707Z,6.92
2023-01-09T06:16:23.137Z,6.94
2023-01-09T06:18:50.395Z,6.96
2023-01-09T06:21:16.757Z,6.95
2023-01-09T06:23:43.119Z,6.98
2023-01-09T06:26:09.461Z,6.98
2023-01-09T06:28:36.059Z,6.97
2023-01-09T06:31:02.496Z,6.99
2023-01-09T06:33:29.011Z,7.00
2023-01-09T06:35:55.368Z,7.01
2023-01-09T06:38:21.743Z,7.02
2023-01-09T06:40:48.607Z,7.02
2023-01-09T06:43:15.173Z,7.01
2023-01-09T06:45:44.561Z,7.01
2023-01-09T06:48:11.400Z,7.00
2023-01-09T06:50:37.807Z,7.01
2023-01-09T06:53:04.182Z,7.02
2023-01-09T06:55:30.541Z,7.05
2023-01-09T06:57:57.169Z,7.04
2023-01-09T07:00:23.625Z,7.03
2023-01-09T07:02:49.999Z,7.03
2023-01-09T07:05:16.654Z,7.05
2023-01-09T07:07:43.113Z,7.02
2023-01-09T07:10:09.950Z,7.06
2023-01-09T07:12:36.519Z,7.01
2023-01-09T07:15:03.084Z,7.04
2023-01-09T07:17:29.450Z,7.03
2023-01-09T07:19:56.078Z,7.02
2023-01-09T07:22:22.441Z,7.05
2023-01-09T07:24:48.888Z,7.03
2023-01-09T07:27:15.471Z,7.05
2023-01-09T07:29:41.863Z,6.98
2023-01-09T07:32:08.279Z,6.92
2023-01-09T07:34:34.885Z,6.93
2023-01-09T07:37:01.243Z,6.87
2023-01-09T07:39:27.638Z,6.82
2023-01-09T07:41:54.219Z,6.78
2023-01-09T07:44:20.567Z,6.78
2023-01-09T07:46:46.912Z,6.76
2023-01-09T07:49:13.275Z,6.73
2023-01-09T07:51:42.925Z,6.71
2023-01-09T07:54:10.037Z,6.65
2023-01-09T07:56:36.607Z,6.59
2023-01-09T07:59:02.954Z,6.56
2023-01-09T08:01:29.388Z,6.51
2023-01-09T08:03:56.081Z,6.48
2023-01-09T08:06:22.433Z,6.41
2023-01-09T08:08:49.116Z,6.40
2023-01-09T08:11:15.755Z,6.37
2023-01-09T08:13:42.102Z,6.31
2023-01-09T08:16:08.669Z,6.28
2023-01-09T08:18:35.182Z,6.25
2023-01-09T08:21:01.573Z,6.29
2023-01-09T08:23:27.980Z,6.26
2023-01-09T08:25:54.611Z,6.26
2023-01-09T08:28:20.975Z,6.25
2023-01-09T08:30:47.552Z,6.26
2023-01-09T08:33:14.291Z,6.24
2023-01-09T08:35:40.644Z,6.24
2023-01-09T08:38:07.055Z,6.21
2023-01-09T08:40:33.620Z,6.24
2023-01-09T08:43:18.568Z,6.23
2023-01-09T08:46:03.690Z,6.24
2023-01-09T08:48:30.043Z,6.26
2023-01-09T08:50:56.452Z,6.28
2023-01-09T08:53:22.875Z,6.31
2023-01-09T08:55:49.564Z,6.34
2023-01-09T08:58:15.934Z,6.36
2023-01-09T09:00:42.637Z,6.38
2023-01-09T09:03:09.232Z,6.38
2023-01-09T09:05:35.875Z,6.41
2023-01-09T09:08:03.542Z,6.43
2023-01-09T09:10:30.420Z,6.45
2023-01-09T09:12:57.824Z,6.46
2023-01-09T09:15:25.045Z,6.43
2023-01-09T09:17:54.379Z,6.44
2023-01-09T09:20:24.906Z,6.47
2023-01-09T09:22:51.321Z,6.50
2023-01-09T09:25:17.835Z,6.52
2023-01-09T09:27:44.589Z,6.54
2023-01-09T09:30:11.649Z,6.55
2023-01-09T09:32:38.656Z,6.58
2023-01-09T09:35:05.483Z,6.58
2023-01-09T09:37:31.926Z,6.62
2023-01-09T09:40:01.450Z,6.66
2023-01-09T09:43:01.173Z,6.69
2023-01-09T09:45:47.727Z,6.73
2023-01-09T09:48:32.559Z,6.78
2023-01-09T09:51:05.050Z,6.84
2023-01-09T09:54:13.772Z,6.87
2023-01-09T09:56:48.398Z,6.93
2023-01-09T09:59:20.636Z,6.95
2023-01-09T10:02:02.631Z,6.98
2023-01-09T10:04:32.044Z,7.00
2023-01-09T10:07:00.643Z,7.02
2023-01-09T10:09:49.282Z,7.03
2023-01-09T10:12:25.247Z,7.07
2023-01-09T10:14:51.821Z,7.15
2023-01-09T10:17:50.956Z,7.29
2023-01-09T10:20:49.193Z,7.40
2023-01-09T10:23:37.741Z,7.45
2023-01-09T10:26:46.349Z,7.48
2023-01-09T10:29:25.865Z,7.53
2023-01-09T10:32:24.604Z,7.59
2023-01-09T10:35:04.921Z,7.69
2023-01-09T10:37:37.029Z,7.72
2023-01-09T10:40:14.334Z,7.72
2023-01-09T10:42:44.754Z,7.73
2023-01-09T10:45:37.109Z,7.74
2023-01-09T10:48:06.474Z,7.73
2023-01-09T10:50:37.643Z,7.76
2023-01-09T10:53:34.648Z,7.76
2023-01-09T10:56:04.825Z,7.78
2023-01-09T10:58:31.298Z,7.77
2023-01-09T11:00:59.464Z,7.77
2023-01-09T11:03:26.132Z,7.80
2023-01-09T11:05:55.286Z,7.82
2023-01-09T11:08:42.655Z,7.84
2023-01-09T11:11:09.668Z,7.86
2023-01-09T11:13:38.244Z,7.88
2023-01-09T11:16:20.233Z,7.89
2023-01-09T11:18:53.782Z,7.94
2023-01-09T11:21:26.425Z,7.97
2023-01-09T11:23:53.552Z,8.00
2023-01-09T11:26:24.860Z,8.08
2023-01-09T11:29:07.768Z,8.12
2023-01-09T11:31:35.309Z,8.18
2023-01-09T11:34:01.751Z,8.23
2023-01-09T11:36:28.206Z,8.20
2023-01-09T11:38:56.038Z,8.13
2023-01-09T11:41:26.864Z,8.11
2023-01-09T11:43:57.324Z,8.13
2023-01-09T11:46:43.820Z,8.14
2023-01-09T11:49:18.018Z,8.13
2023-01-09T11:51:44.498Z,8.17
2023-01-09T11:54:30.693Z,8.17
2023-01-09T11:56:57.073Z,8.17
2023-01-09T11:59:26.647Z,8.16
2023-01-09T12:01:56.471Z,8.18
2023-01-09T12:04:31.193Z,8.18
2023-01-09T12:07:21.842Z,8.17
2023-01-09T12:10:26.956Z,8.21
2023-01-09T12:13:26.808Z,8.18
2023-01-09T12:15:59.286Z,8.20
2023-01-09T12:18:37.759Z,8.23
2023-01-09T12:21:04.098Z,8.25
2023-01-09T12:23:55.568Z,8.22
2023-01-09T12:26:30.927Z,8.21
2023-01-09T12:29:16.322Z,8.20
2023-01-09T12:32:00.933Z,8.17
2023-01-09T12:35:03.074Z,8.20
2023-01-09T12:37:57.652Z,8.20
2023-01-09T12:41:07.005Z,8.24
2023-01-09T12:43:56.797Z,8.26
2023-01-09T12:46:24.658Z,8.29
2023-01-09T12:49:09.879Z,8.30
2023-01-09T12:51:55.274Z,8.28
2023-01-09T12:54:31.480Z,8.26
2023-01-09T12:57:01.291Z,8.29
2023-01-09T12:59:43.266Z,8.31
2023-01-09T13:02:32.529Z,8.30
2023-01-09T13:05:01.173Z,8.27
2023-01-09T13:07:48.801Z,8.28
2023-01-09T13:10:27.817Z,8.31
2023-01-09T13:12:54.217Z,8.34
2023-01-09T13:15:45.320Z,8.35
2023-01-09T13:18:24.564Z,8.47
2023-01-09T13:20:53.242Z,8.58
2023-01-09T13:23:45.122Z,8.70
2023-01-09T13:26:24.956Z,8.83
2023-01-09T13:28:54.710Z,8.85
2023-01-09T13:31:37.147Z,8.81
2023-01-09T13:34:04.589Z,8.79
2023-01-09T13:36:36.658Z,8.86
2023-01-09T13:39:03.337Z,8.90
2023-01-09T13:41:48.635Z,8.89
2023-01-09T13:44:18.116Z,8.86
2023-01-09T13:46:46.358Z,8.80
2023-01-09T13:49:35.231Z,8.83
2023-01-09T13:52:02.579Z,8.78
2023-01-09T13:54:58.267Z,8.70
2023-01-09T13:57:28.846Z,8.61
2023-01-09T13:59:59.527Z,8.56
2023-01-09T14:02:35.266Z,8.49
2023-01-09T14:05:03.443Z,8.46
2023-01-09T14:07:30.659Z,8.42
2023-01-09T14:09:59.204Z,8.43
2023-01-09T14:12:26.909Z,8.46
2023-01-09T14:14:54.567Z,8.45
2023-01-09T14:17:28.819Z,8.44
2023-01-09T14:19:57.203Z,8.41
2023-01-09T14:22:28.604Z,8.41
2023-01-09T14:24:56.582Z,8.40
2023-01-09T14:27:54.184Z,8.42
2023-01-09T14:30:28.472Z,8.43
2023-01-09T14:33:05.072Z,8.42
2023-01-09T14:35:55.800Z,8.46
2023-01-09T14:38:28.397Z,8.42
2023-01-09T14:40:59.414Z,8.43
2023-01-09T14:43:44.734Z,8.42
2023-01-09T14:46:14.587Z,8.41
2023-01-09T14:48:46.051Z,8.40
2023-01-09T14:51:15.077Z,8.40
2023-01-09T14:53:41.456Z,8.39
2023-01-09T14:56:27.549Z,8.33
2023-01-09T14:59:21.964Z,8.35
2023-01-09T15:01:52.615Z,8.38
2023-01-09T15:04:26.303Z,8.36
2023-01-09T15:06:52.736Z,8.37
2023-01-09T15:09:28.059Z,8.35
2023-01-09T15:12:01.944Z,8.31
2023-01-09T15:14:38.031Z,8.28
2023-01-09T15:17:04.628Z,8.27
2023-01-09T15:19:32.082Z,8.27
2023-01-09T15:21:59.496Z,8.28
2023-01-09T15:24:29.465Z,8.26
2023-01-09T15:27:01.219Z,8.25
2023-01-09T15:29:28.596Z,8.25
2023-01-09T15:32:03.097Z,8.25
2023-01-09T15:34:29.570Z,8.24
2023-01-09T15:36:56.126Z,8.27
2023-01-09T15:39:44.889Z,8.25
2023-01-09T15:42:47.104Z,8.25
2023-01-09T15:45:23.078Z,8.24
2023-01-09T15:47:49.447Z,8.23
2023-01-09T15:50:16.755Z,8.21
2023-01-09T15:52:43.146Z,8.23
2023-01-09T15:55:35.058Z,8.23
2023-01-09T15:58:02.434Z,8.21
2023-01-09T16:00:28.952Z,8.21
2023-01-09T16:03:10.881Z,8.19
2023-01-09T16:05:44.740Z,8.15
2023-01-09T16:08:24.699Z,8.14
2023-01-09T16:10:53.142Z,8.09
2023-01-09T16:13:21.315Z,8.03
2023-01-09T16:15:47.714Z,7.93
2023-01-09T16:18:15.260Z,7.86
2023-01-09T16:20:41.998Z,7.81
2023-01-09T16:23:28.960Z,7.76
2023-01-09T16:26:14.408Z,7.73
2023-01-09T16:28:42.320Z,7.67
2023-01-09T16:31:25.218Z,7.63
2023-01-09T16:34:04.437Z,7.57
2023-01-09T16:36:30.920Z,7.57
2023-01-09T16:38:57.887Z,7.59
2023-01-09T16:41:42.961Z,7.57
2023-01-09T16:44:09.856Z,7.54
2023-01-09T16:46:40.481Z,7.54
2023-01-09T16:49:23.513Z,7.56
2023-01-09T16:51:50.765Z,7.58
2023-01-09T16:54:17.247Z,7.58
2023-01-09T16:56:44.840Z,7.57
2023-01-09T16:59:15.151Z,7.58
2023-01-09T17:01:41.693Z,7.60
2023-01-09T17:04:14.907Z,7.58
2023-01-09T17:06:41.727Z,7.59
2023-01-09T17:09:12.570Z,7.59
2023-01-09T17:11:39.843Z,7.59
2023-01-09T17:14:06.626Z,7.59
2023-01-09T17:16:36.666Z,7.61
2023-01-09T17:19:03.647Z,7.56
2023-01-09T17:21:30.686Z,7.52
2023-01-09T17:24:16.266Z,7.51
2023-01-09T17:27:02.089Z,7.48
2023-01-09T17:29:28.955Z,7.47
2023-01-09T17:31:56.022Z,7.42
2023-01-09T17:34:22.461Z,7.30
2023-01-09T17:36:48.839Z,7.24
2023-01-09T17:39:16.123Z,7.19
2023-01-09T17:41:42.689Z,7.13
2023-01-09T17:44:10.256Z,7.11
2023-01-09T17:46:38.147Z,7.09
2023-01-09T17:49:06.902Z,7.10
2023-01-09T17:51:33.366Z,7.05
2023-01-09T17:53:59.826Z,7.07
2023-01-09T17:56:30.354Z,7.02
2023-01-09T17:58:56.790Z,6.99
2023-01-09T18:01:23.242Z,6.98
2023-01-09T18:03:50.506Z,6.98
2023-01-09T18:06:18.617Z,6.96
2023-01-09T18:08:45.054Z,6.94
2023-01-09T18:11:14.026Z,6.94
2023-01-09T18:13:41.153Z,6.91
2023-01-09T18:16:16.256Z,6.92
2023-01-09T18:18:42.863Z,6.89
2023-01-09T18:21:09.436Z,6.87
2023-01-09T18:23:35.982Z,6.88
2023-01-09T18:26:06.951Z,6.89
2023-01-09T18:28:36.011Z,6.87
2023-01-09T18:31:02.516Z,6.88
2023-01-09T18:33:28.905Z,6.89
2023-01-09T18:35:55.671Z,6.90
2023-01-09T18:38:22.020Z,6.92
2023-01-09T18:40:48.491Z,6.90
2023-01-09T18:43:15.466Z,6.87
2023-01-09T18:45:41.881Z,6.86
2023-01-09T18:48:09.451Z,6.84
2023-01-09T18:50:35.825Z,6.82
2023-01-09T18:53:02.195Z,6.80
2023-01-09T18:55:28.838Z,6.76
2023-01-09T18:57:55.824Z,6.71
2023-01-09T19:00:22.398Z,6.70
2023-01-09T19:02:48.790Z,6.60
2023-01-09T19:05:15.982Z,6.53
2023-01-09T19:07:42.340Z,6.51
2023-01-09T19:10:09.667Z,6.47
2023-01-09T19:12:36.033Z,6.45
2023-01-09T19:15:02.404Z,6.45
2023-01-09T19:17:28.786Z,6.46
2023-01-09T19:19:55.159Z,6.43
2023-01-09T19:22:21.522Z,6.43
2023-01-09T19:24:47.920Z,6.47
2023-01-09T19:27:14.284Z,6.47
2023-01-09T19:29:40.625Z,6.44
2023-01-09T19:32:08.481Z,6.45
2023-01-09T19:34:35.384Z,6.46
2023-01-09T19:37:01.824Z,6.44
2023-01-09T19:39:28.317Z,6.41
2023-01-09T19:41:55.956Z,6.39
2023-01-09T19:44:22.377Z,6.35
2023-01-09T19:46:48.809Z,6.36
2023-01-09T19:49:15.166Z,6.36
2023-01-09T19:51:42.370Z,6.27
2023-01-09T19:54:09.886Z,6.28
2023-01-09T19:56:37.951Z,6.30
2023-01-09T19:59:04.646Z,6.35
2023-01-09T20:01:32.570Z,6.35
2023-01-09T20:04:04.784Z,6.35
2023-01-09T20:06:31.403Z,6.36
2023-01-09T20:08:59.019Z,6.27
2023-01-09T20:11:27.317Z,6.32
2023-01-09T20:13:55.375Z,6.32
2023-01-09T20:16:23.496Z,6.32
2023-01-09T20:18:49.917Z,6.31
2023-01-09T20:23:50.055Z,6.33
2023-01-09T20:26:17.100Z,6.34
2023-01-09T20:28:44.240Z,6.35
2023-01-09T20:31:11.502Z,6.37
2023-01-09T20:33:37.926Z,6.36
2023-01-09T20:36:05.192Z,6.31
2023-01-09T20:38:32.197Z,6.36
2023-01-09T20:40:58.617Z,6.37
2023-01-09T20:43:25.067Z,6.35
2023-01-09T20:45:51.413Z,6.32
2023-01-09T20:48:17.839Z,6.35
2023-01-09T20:50:44.278Z,6.34
2023-01-09T20:53:10.683Z,6.37
2023-01-09T20:55:37.082Z,6.37
2023-01-09T20:58:03.438Z,6.40
2023-01-09T21:00:32.081Z,6.35
2023-01-09T21:02:59.263Z,6.38
2023-01-09T21:05:25.756Z,6.41
2023-01-09T21:07:52.254Z,6.37
2023-01-09T21:10:18.756Z,6.37
2023-01-09T21:12:45.105Z,6.34
2023-01-09T21:15:15.202Z,6.37
2023-01-09T21:17:41.579Z,6.35
2023-01-09T21:20:10.521Z,6.33
2023-01-09T21:22:37.074Z,6.32
2023-01-09T21:25:03.875Z,6.34
2023-01-09T21:27:35.386Z,6.36
2023-01-09T21:30:02.303Z,6.36
2023-01-09T21:32:29.281Z,6.36
2023-01-09T21:34:55.653Z,6.33
2023-01-09T21:37:22.101Z,6.31
2023-01-09T21:39:48.451Z,6.32
2023-01-09T21:42:33.518Z,6.27
2023-01-09T21:45:18.195Z,6.27
2023-01-09T21:47:44.568Z,6.30
2023-01-09T21:50:10.908Z,6.29
2023-01-09T21:52:37.492Z,6.24
2023-01-09T21:55:04.117Z,6.28
2023-01-09T21:57:30.483Z,6.34
2023-01-09T21:59:56.833Z,6.33
2023-01-09T22:02:23.281Z,6.29
2023-01-09T22:04:49.630Z,6.29
2023-01-09T22:07:16.345Z,6.29
2023-01-09T22:09:44.332Z,6.31
2023-01-09T22:12:11.851Z,6.32
2023-01-09T22:14:39.616Z,6.35
2023-01-09T22:17:06.123Z,6.37
2023-01-09T22:19:32.625Z,6.38
2023-01-09T22:21:59.927Z,6.36
2023-01-09T22:24:26.373Z,6.34
2023-01-09T22:26:52.772Z,6.38
2023-01-09T22:29:19.172Z,6.37
2023-01-09T22:31:45.734Z,6.36
2023-01-09T22:34:16.515Z,6.37
2023-01-09T22:36:43.781Z,6.35
2023-01-09T22:39:11.789Z,6.37
2023-01-09T22:41:38.132Z,6.34
2023-01-09T22:44:04.874Z,6.37
2023-01-09T22:46:32.131Z,6.35
2023-01-09T22:48:58.526Z,6.38
2023-01-09T22:51:24.936Z,6.37
2023-01-09T22:53:51.312Z,6.39
2023-01-09T22:56:19.344Z,6.39
2023-01-09T22:58:52.633Z,6.39
2023-01-09T23:01:19.128Z,6.38
2023-01-09T23:03:45.868Z,6.38
2023-01-09T23:06:14.020Z,6.38
2023-01-09T23:08:40.604Z,6.39
2023-01-09T23:11:09.579Z,6.37
2023-01-09T23:13:36.083Z,6.38
2023-01-09T23:16:02.682Z,6.41
2023-01-09T23:18:29.252Z,6.40
2023-01-09T23:21:05.379Z,6.39
2023-01-09T23:23:32.061Z,6.38
2023-01-09T23:26:00.249Z,6.41
2023-01-09T23:28:26.722Z,6.41
2023-01-09T23:30:53.204Z,6.40
2023-01-09T23:33:22.545Z,6.41
2023-01-09T23:35:49.042Z,6.37
2023-01-09T23:38:15.756Z,6.34
2023-01-09T23:40:42.313Z,6.31
2023-01-09T23:43:12.683Z,6.34
2023-01-09T23:45:43.102Z,6.35
2023-01-09T23:48:11.262Z,6.35
2023-01-09T23:50:37.642Z,6.32
2023-01-09T23:53:04.345Z,6.32
2023-01-09T23:55:31.825Z,6.32
2023-01-09T23:57:58.204Z,6.30
